createdAt,value
2023-02-28T00:08:00.354Z,-2.60
2023-02-28T00:10:30.026Z,-2.20
2023-02-28T00:13:01.088Z,-1.90
2023-02-28T00:15:28.460Z,-3.10
2023-02-28T00:17:55.867Z,-2.80
2023-02-28T00:20:23.181Z,-3.00
2023-02-28T00:22:52.816Z,-1.80
2023-02-28T00:25:25.527Z,-2.90
2023-02-28T00:27:52.443Z,-2.80
2023-02-28T00:30:30.440Z,-2.20
2023-02-28T00:32:57.425Z,-2.80
2023-02-28T00:35:24.847Z,-2.90
2023-02-28T00:37:52.586Z,-1.90
2023-02-28T00:40:19.577Z,-2.30
2023-02-28T00:42:46.801Z,-2.40
2023-02-28T00:45:13.990Z,-2.50
2023-02-28T00:47:41.344Z,-2.60
2023-02-28T00:50:09.715Z,-2.60
2023-02-28T00:52:36.975Z,-2.90
2023-02-28T00:55:04.277Z,-3.20
2023-02-28T00:57:31.235Z,-2.70
2023-02-28T00:59:58.123Z,-2.50
2023-02-28T01:04:52.901Z,-3.00
2023-02-28T01:09:47.831Z,-3.40
2023-02-28T01:12:14.933Z,-2.80
2023-02-28T01:14:42.229Z,-2.90
2023-02-28T02:46:30.710Z,-3.70
2023-02-28T02:49:00.589Z,-3.80
2023-02-28T02:51:29.051Z,-4.00
2023-02-28T02:54:03.226Z,-3.60
2023-02-28T02:56:32.847Z,-3.10
2023-02-28T02:59:07.704Z,-3.60
2023-02-28T03:01:37.562Z,-3.90
2023-02-28T03:04:09.786Z,-3.60
2023-02-28T03:06:36.869Z,-4.30
2023-02-28T03:09:05.689Z,-3.40
2023-02-28T03:11:33.960Z,-3.20
2023-02-28T03:14:29.638Z,-3.50
2023-02-28T03:17:17.246Z,-3.70
2023-02-28T03:19:52.698Z,-3.50
2023-02-28T03:22:34.224Z,-3.50
2023-02-28T03:25:23.526Z,-3.40
2023-02-28T03:28:19.830Z,-3.40
2023-02-28T03:30:55.547Z,-3.60
2023-02-28T03:33:24.266Z,-3.50
2023-02-28T03:36:00.458Z,-3.00
2023-02-28T03:38:46.068Z,-3.40
2023-02-28T03:41:20.167Z,-3.40
2023-02-28T03:43:53.495Z,-3.40
2023-02-28T03:46:24.035Z,-2.80
2023-02-28T03:49:19.832Z,-3.00
2023-02-28T03:51:48.152Z,-3.20
2023-02-28T03:54:20.957Z,-3.30
2023-02-28T03:57:46.534Z,-3.60
2023-02-28T04:00:21.049Z,-3.50
2023-02-28T04:02:53.546Z,-3.40
2023-02-28T04:05:21.632Z,-2.80
2023-02-28T04:07:49.288Z,-3.30
2023-02-28T04:10:16.704Z,-3.70
2023-02-28T04:12:43.443Z,-2.90
2023-02-28T04:15:11.578Z,-3.60
2023-02-28T10:17:55.451Z,2.40
2023-02-28T10:20:32.412Z,3.00
2023-02-28T10:28:15.172Z,2.60
2023-02-28T10:30:46.117Z,2.80
2023-02-28T10:33:32.578Z,2.70
2023-02-28T10:38:35.505Z,3.00
2023-02-28T10:41:11.290Z,3.10
2023-02-28T10:46:08.898Z,3.40
2023-02-28T10:49:00.625Z,3.60
2023-02-28T13:10:44.222Z,13.70
2023-02-28T13:29:01.954Z,14.40
2023-02-28T15:02:41.752Z,14.80
2023-02-28T15:05:19.829Z,15.20
2023-02-28T15:07:47.972Z,15.00
2023-02-28T15:18:40.675Z,14.40
2023-02-28T15:21:12.384Z,14.70
2023-02-28T15:23:41.614Z,14.80
2023-02-28T15:26:11.575Z,14.60
2023-02-28T15:28:38.325Z,14.40
2023-02-28T15:31:24.051Z,14.70
2023-02-28T15:34:03.245Z,14.50
2023-02-28T15:36:32.802Z,14.70
2023-02-28T15:39:14.200Z,14.10
2023-02-28T15:41:42.517Z,14.00
2023-02-28T15:44:30.811Z,14.30
2023-02-28T15:54:28.454Z,13.30
2023-02-28T15:57:02.227Z,12.90
2023-02-28T15:59:31.155Z,13.20
2023-02-28T16:02:10.560Z,12.90
2023-02-28T16:04:38.005Z,12.40
2023-02-28T16:09:35.267Z,8.60
2023-02-28T16:17:05.260Z,6.90
2023-02-28T22:20:56.293Z,-1.70
2023-02-28T22:23:22.985Z,-2.20
2023-02-28T22:25:50.305Z,-1.80
2023-02-28T22:28:16.967Z,-1.90
2023-02-28T22:30:43.694Z,-1.70
2023-02-28T22:33:10.356Z,-1.80
2023-02-28T22:35:37.128Z,-1.80
2023-02-28T22:38:03.868Z,-1.90
2023-02-28T22:40:30.789Z,-1.90
2023-02-28T22:42:57.463Z,-1.90
2023-02-28T22:45:24.199Z,-1.90
2023-02-28T22:47:50.966Z,-2.00
2023-02-28T22:50:17.714Z,-1.90
2023-02-28T22:52:44.423Z,-1.80
2023-02-28T22:55:11.275Z,-2.00
2023-02-28T22:57:38.058Z,-2.20
2023-02-28T23:00:07.288Z,-2.30
2023-02-28T23:02:34.482Z,-2.00
2023-02-28T23:05:01.848Z,-2.10
2023-02-28T23:07:28.533Z,-2.30
2023-02-28T23:09:55.184Z,-2.30
2023-02-28T23:12:21.881Z,-2.20
2023-02-28T23:14:48.558Z,-2.10
2023-02-28T23:17:15.315Z,-2.30
2023-02-28T23:19:42.162Z,-2.40
2023-02-28T23:22:08.876Z,-2.20
2023-02-28T23:24:36.793Z,-2.40
2023-02-28T23:27:06.159Z,-2.30
2023-02-28T23:29:34.356Z,-2.30
2023-02-28T23:32:01.510Z,-2.30
2023-02-28T23:34:30.370Z,-2.10
2023-02-28T23:36:59.502Z,-2.50
2023-02-28T23:39:27.335Z,-2.10
2023-02-28T23:41:55.378Z,-2.20
2023-02-28T23:44:22.092Z,-2.00
2023-02-28T23:46:51.402Z,-2.10
2023-02-28T23:49:20.012Z,-2.30
2023-02-28T23:51:49.331Z,-2.20
2023-02-28T23:54:17.474Z,-2.10
2023-02-28T23:59:11.520Z,-2.30
